To NAV CANADA Home Page Login to a new session Search on AWWS site Feedback and Comments Disclaimer Vers la page française équivalente Tips FAQ What's new on the site To the Forecasts and Observations / NOTAM section To "File a Flight Plan" website Publications and other links Update of the User's profile FIC Telephone Numbers My Weather Data Folder Route Weather Data Regional Weather Data Local Weather Data To the Forecasts and Observations / NOTAM section
Request Generated 03/30/2015 at 04:23:42 UTC . Weather information available at that time is displayed.

METAR/TAF

SASKATOON/JOHN G. DIEFENBAKER INTL/SK    

METAR CYXE 300400Z 10004KT 15SM OVC075 08/01 A2977 RMK AC8 SLP100=
METAR CYXE 300300Z 10006KT 15SM OVC070 08/02 A2978 RMK AC8 SLP104=
METAR CYXE 300200Z 15003KT 15SM BKN084 09/02 A2980 RMK AC7 SLP110=

TAF CYXE 292338Z 3000/3024 24010KT P6SM FEW060 BKN200
FM300300 22008KT P6SM FEW020 BKN060 TEMPO 3003/3008 P6SM -SHRA
FM300800 27008KT P6SM FEW040
BECMG 3009/3011 29015KT
FM301600 30020G30KT P6SM SKC
BECMG 3021/3023 31012KT
RMK NXT FCST BY 300600Z=
Your time UTC time
Weather data provided by Environment Canada and NAV CANADA